Time;durP1;ratioP1;P1;durP2;ratioP2;P2;SDS_P1;SDS_P2;PMS_P1;PMS_P2;Temp;Humidity;BMP_temperature;BMP_pressure;BME280_temperature;BME280_humidity;BME280_pressure;Samples;Min_cycle;Max_cycle;Signal;HPM_P1;HPM_P2
2023/12/31 00:01:15;;;;;;;1.07;0.90;;;5.30;99.90;;;;;;5059468;28;20446;-81
2023/12/31 00:03:41;;;;;;;1.23;0.70;;;5.30;99.90;;;;;;5058628;28;20461;-83
2023/12/31 00:06:08;;;;;;;0.77;0.77;;;5.30;99.90;;;;;;5058971;28;20410;-82
2023/12/31 00:08:35;;;;;;;1.83;0.70;;;5.30;99.90;;;;;;5058710;28;20485;-82
2023/12/31 00:11:02;;;;;;;1.73;1.57;;;5.20;99.90;;;;;;5059064;28;20446;-81
2023/12/31 00:13:29;;;;;;;1.53;0.90;;;5.20;99.90;;;;;;5059498;28;20449;-82
2023/12/31 00:15:55;;;;;;;3.07;1.50;;;5.20;99.90;;;;;;5058178;28;20487;-82
2023/12/31 00:18:24;;;;;;;2.87;1.40;;;5.20;99.90;;;;;;5058790;28;20470;-82
2023/12/31 00:20:50;;;;;;;1.27;1.03;;;5.20;99.90;;;;;;5058542;28;20450;-82
2023/12/31 00:23:17;;;;;;;0.77;0.77;;;5.20;99.90;;;;;;5057871;28;20446;-82
2023/12/31 00:25:44;;;;;;;0.80;0.80;;;5.30;99.90;;;;;;5058039;28;20461;-81
2023/12/31 00:28:10;;;;;;;2.83;2.10;;;5.20;99.90;;;;;;5057769;28;20469;-81
2023/12/31 00:30:37;;;;;;;4.83;2.00;;;5.20;99.90;;;;;;5058309;28;20445;-82
2023/12/31 00:33:04;;;;;;;1.97;1.67;;;5.20;99.90;;;;;;5057732;28;20450;-82
2023/12/31 00:35:32;;;;;;;2.67;1.10;;;5.30;99.90;;;;;;5057694;28;20450;-82
2023/12/31 00:37:59;;;;;;;1.53;1.43;;;5.20;99.90;;;;;;5057497;28;20465;-81
2023/12/31 00:40:26;;;;;;;0.60;0.57;;;5.20;99.90;;;;;;5057628;28;20431;-80
2023/12/31 00:42:53;;;;;;;1.13;0.60;;;5.20;99.90;;;;;;5057639;28;20450;-80
2023/12/31 00:45:19;;;;;;;0.93;0.83;;;5.20;99.90;;;;;;5057402;28;20973;-82
2023/12/31 00:47:46;;;;;;;2.00;0.70;;;5.20;99.90;;;;;;5057746;28;20469;-81
2023/12/31 00:50:13;;;;;;;0.73;0.63;;;5.20;99.90;;;;;;5057531;28;20947;-82
2023/12/31 00:52:41;;;;;;;1.67;1.30;;;5.20;99.90;;;;;;5057481;28;20450;-83
2023/12/31 00:55:08;;;;;;;2.40;1.53;;;5.20;99.90;;;;;;5057591;28;20453;-81
2023/12/31 00:57:35;;;;;;;0.93;0.93;;;5.20;99.90;;;;;;5063490;28;20485;-78
2023/12/31 01:00:04;;;;;;;4.17;1.50;;;5.20;99.90;;;;;;5057651;28;20457;-83
2023/12/31 01:02:31;;;;;;;2.20;1.37;;;5.20;99.90;;;;;;5057112;28;20450;-83
2023/12/31 01:04:57;;;;;;;2.30;1.57;;;5.20;99.90;;;;;;5056169;28;20453;-83
2023/12/31 01:07:24;;;;;;;2.87;0.80;;;5.20;99.90;;;;;;5056618;28;20983;-82
2023/12/31 01:09:52;;;;;;;2.60;1.37;;;5.20;99.90;;;;;;5057583;28;20470;-83
2023/12/31 01:12:19;;;;;;;1.70;1.27;;;5.10;99.90;;;;;;5057279;28;20442;-82
2023/12/31 01:14:46;;;;;;;1.20;1.10;;;5.00;99.90;;;;;;5057823;28;20814;-82
2023/12/31 01:17:13;;;;;;;1.33;1.23;;;5.00;99.90;;;;;;5056926;28;20477;-83
2023/12/31 01:19:40;;;;;;;0.90;0.80;;;5.00;99.90;;;;;;5056842;28;20935;-82
2023/12/31 01:22:06;;;;;;;2.20;1.30;;;4.90;99.90;;;;;;5057306;28;20460;-82
2023/12/31 01:24:33;;;;;;;1.17;1.00;;;4.90;99.90;;;;;;5056774;28;20446;-81
2023/12/31 01:27:01;;;;;;;2.90;2.53;;;4.90;99.90;;;;;;5057108;28;20442;-83
2023/12/31 01:29:28;;;;;;;0.60;0.57;;;4.90;99.90;;;;;;5057112;28;20450;-82
2023/12/31 01:31:55;;;;;;;0.60;0.60;;;4.80;99.90;;;;;;5057176;28;20472;-83
2023/12/31 01:34:22;;;;;;;0.80;0.80;;;4.80;99.90;;;;;;5057080;28;20453;-82
2023/12/31 01:36:48;;;;;;;1.50;1.40;;;4.80;99.90;;;;;;5057828;28;20474;-82
2023/12/31 01:39:15;;;;;;;1.43;0.80;;;4.70;99.90;;;;;;5057353;28;20462;-82
2023/12/31 01:41:42;;;;;;;1.30;1.20;;;4.70;99.90;;;;;;5057529;28;20442;-82
2023/12/31 01:44:10;;;;;;;0.73;0.60;;;4.60;99.90;;;;;;5057715;28;20790;-83
2023/12/31 01:46:37;;;;;;;1.23;0.87;;;4.60;99.90;;;;;;5057680;28;20452;-82
2023/12/31 01:49:05;;;;;;;1.17;0.70;;;4.50;99.90;;;;;;5058112;28;20454;-81
2023/12/31 01:51:33;;;;;;;0.77;0.77;;;4.50;99.90;;;;;;5057741;28;20500;-82
2023/12/31 01:54:02;;;;;;;2.40;1.30;;;4.50;99.90;;;;;;5057937;28;20461;-81
2023/12/31 01:56:29;;;;;;;3.50;1.27;;;4.50;99.90;;;;;;5057807;28;20481;-82
2023/12/31 01:58:58;;;;;;;0.93;0.80;;;4.40;99.90;;;;;;5058259;28;20473;-82
2023/12/31 02:01:27;;;;;;;2.30;0.60;;;4.40;99.90;;;;;;5058012;28;20445;-82
2023/12/31 02:03:54;;;;;;;0.50;0.50;;;4.30;99.90;;;;;;5057837;28;20438;-81
2023/12/31 02:06:21;;;;;;;1.90;1.70;;;4.30;99.90;;;;;;5058029;28;20442;-82
2023/12/31 02:08:48;;;;;;;0.90;0.80;;;4.40;99.90;;;;;;5057430;28;20488;-81
2023/12/31 02:11:16;;;;;;;1.67;1.00;;;4.40;99.90;;;;;;5057863;28;20469;-81
2023/12/31 02:13:43;;;;;;;0.80;0.80;;;4.50;99.90;;;;;;5057475;28;20442;-81
2023/12/31 02:16:16;;;;;;;0.77;0.70;;;4.50;99.90;;;;;;5059239;28;20489;-81
2023/12/31 02:18:44;;;;;;;3.23;0.90;;;4.50;99.90;;;;;;5060951;28;20465;-82
2023/12/31 02:21:13;;;;;;;2.97;1.47;;;4.60;99.90;;;;;;5060710;28;20450;-83
2023/12/31 02:23:42;;;;;;;1.53;1.17;;;4.60;99.90;;;;;;5060562;28;20448;-81
2023/12/31 02:26:12;;;;;;;1.27;1.10;;;4.60;99.90;;;;;;5060372;28;20797;-82
2023/12/31 02:28:39;;;;;;;1.57;0.80;;;4.60;99.90;;;;;;5060694;28;20469;-82
2023/12/31 02:31:07;;;;;;;0.70;0.70;;;4.60;99.90;;;;;;5061378;28;20449;-81
2023/12/31 02:33:34;;;;;;;0.60;0.60;;;4.60;99.90;;;;;;5060519;28;20808;-82
2023/12/31 02:36:01;;;;;;;1.50;1.07;;;4.70;99.90;;;;;;5060017;28;20445;-82
2023/12/31 02:38:28;;;;;;;1.70;0.73;;;4.80;99.90;;;;;;5060680;28;20857;-82
2023/12/31 02:40:54;;;;;;;3.00;1.37;;;4.90;99.90;;;;;;5060259;28;20438;-81
2023/12/31 02:43:22;;;;;;;2.60;0.77;;;4.90;99.90;;;;;;5060528;28;20501;-82
2023/12/31 02:45:49;;;;;;;0.83;0.70;;;4.90;99.90;;;;;;5060034;28;20457;-81
2023/12/31 02:48:16;;;;;;;1.17;1.07;;;5.00;99.90;;;;;;5059534;28;20470;-80
2023/12/31 02:50:43;;;;;;;4.53;0.83;;;5.00;99.90;;;;;;5059507;28;20445;-81
2023/12/31 02:53:09;;;;;;;1.57;0.73;;;5.00;99.90;;;;;;5060111;28;20808;-82
2023/12/31 02:55:36;;;;;;;0.80;0.70;;;5.10;99.90;;;;;;5060249;28;20463;-82
2023/12/31 02:58:03;;;;;;;1.43;0.77;;;5.10;99.90;;;;;;5059707;28;20481;-82
2023/12/31 03:00:31;;;;;;;1.20;0.83;;;5.10;99.90;;;;;;5059676;28;20439;-82
2023/12/31 03:02:58;;;;;;;0.70;0.70;;;5.00;99.90;;;;;;5059599;28;20802;-81
2023/12/31 03:05:25;;;;;;;1.87;1.03;;;5.00;99.90;;;;;;5059914;28;20442;-82
2023/12/31 03:07:51;;;;;;;1.00;0.90;;;5.00;99.90;;;;;;5059518;28;20481;-81
2023/12/31 03:10:18;;;;;;;0.73;0.70;;;5.10;99.90;;;;;;5061046;28;20445;-80
2023/12/31 03:12:45;;;;;;;1.30;1.20;;;5.10;99.90;;;;;;5063534;28;20450;-82
2023/12/31 03:15:11;;;;;;;1.00;0.80;;;5.20;99.90;;;;;;5057451;28;20445;-82
2023/12/31 03:17:40;;;;;;;4.70;0.80;;;5.20;99.90;;;;;;5057332;28;20994;-82
2023/12/31 03:20:08;;;;;;;1.10;0.87;;;5.20;99.90;;;;;;5057470;28;20446;-83
2023/12/31 03:22:35;;;;;;;2.40;1.20;;;5.30;99.90;;;;;;5057968;28;20445;-82
2023/12/31 03:25:01;;;;;;;1.10;1.07;;;5.40;99.90;;;;;;5057201;28;20974;-82
2023/12/31 03:27:28;;;;;;;1.33;0.80;;;5.40;99.90;;;;;;5056599;28;20464;-83
2023/12/31 03:29:55;;;;;;;4.10;1.00;;;5.30;99.90;;;;;;5057339;28;20456;-83
2023/12/31 03:32:21;;;;;;;0.53;0.53;;;5.30;99.90;;;;;;5057947;28;20816;-80
2023/12/31 03:34:50;;;;;;;1.80;1.10;;;5.20;99.90;;;;;;5058032;28;20442;-83
2023/12/31 03:37:16;;;;;;;3.07;1.30;;;5.20;99.90;;;;;;5057759;28;20493;-82
2023/12/31 03:39:43;;;;;;;1.10;1.00;;;5.20;99.90;;;;;;5057914;28;20434;-82
2023/12/31 03:42:10;;;;;;;2.37;0.90;;;5.10;99.90;;;;;;5058078;28;20446;-82
2023/12/31 03:44:36;;;;;;;0.70;0.70;;;5.10;99.90;;;;;;5058024;28;20926;-82
2023/12/31 03:47:03;;;;;;;0.93;0.93;;;5.10;99.90;;;;;;5057340;28;20449;-83
2023/12/31 03:49:30;;;;;;;0.80;0.80;;;5.10;99.90;;;;;;5058170;28;20939;-83
2023/12/31 03:51:58;;;;;;;3.50;1.20;;;5.10;99.90;;;;;;5058390;28;20450;-83
2023/12/31 03:54:25;;;;;;;2.10;0.70;;;5.20;99.90;;;;;;5058036;28;20445;-82
2023/12/31 03:56:51;;;;;;;1.00;0.57;;;5.20;99.90;;;;;;5058037;28;20846;-81
2023/12/31 03:59:18;;;;;;;1.10;0.70;;;5.20;99.90;;;;;;5058418;28;20450;-82
2023/12/31 04:01:46;;;;;;;0.87;0.77;;;5.20;99.90;;;;;;5059245;28;20453;-82
2023/12/31 04:04:14;;;;;;;1.47;1.00;;;5.20;99.90;;;;;;5058078;28;20450;-82
2023/12/31 04:06:41;;;;;;;1.07;0.90;;;5.10;99.90;;;;;;5058445;28;20545;-82
2023/12/31 04:09:10;;;;;;;4.50;1.03;;;5.10;99.90;;;;;;5057793;28;20496;-81
2023/12/31 04:11:36;;;;;;;1.93;0.77;;;5.10;99.90;;;;;;5058703;28;20484;-82
2023/12/31 04:14:03;;;;;;;1.27;1.00;;;5.10;99.90;;;;;;5058426;28;20453;-82
2023/12/31 04:16:30;;;;;;;0.60;0.60;;;5.10;99.90;;;;;;5057919;28;20446;-81
2023/12/31 04:18:57;;;;;;;1.83;0.80;;;5.00;99.90;;;;;;5058341;28;20470;-82
2023/12/31 04:21:23;;;;;;;0.67;0.50;;;5.00;99.90;;;;;;5057472;28;20452;-82
2023/12/31 04:23:50;;;;;;;0.60;0.60;;;5.10;99.90;;;;;;5057988;28;20457;-82
2023/12/31 04:26:19;;;;;;;1.40;1.30;;;5.10;99.90;;;;;;5058075;28;20446;-83
2023/12/31 04:28:45;;;;;;;1.47;1.13;;;5.10;99.90;;;;;;5057788;28;20959;-82
2023/12/31 04:31:12;;;;;;;4.03;0.93;;;5.00;99.90;;;;;;5057942;28;20453;-82
2023/12/31 04:33:39;;;;;;;1.10;0.90;;;5.00;99.90;;;;;;5057249;28;20452;-82
2023/12/31 04:36:06;;;;;;;0.43;0.40;;;5.00;99.90;;;;;;5057399;28;20438;-82
2023/12/31 04:38:33;;;;;;;1.70;1.00;;;5.00;99.90;;;;;;5057739;28;20489;-82
2023/12/31 04:41:00;;;;;;;1.53;0.90;;;5.00;99.90;;;;;;5057849;28;20449;-83
2023/12/31 04:43:28;;;;;;;1.00;0.90;;;5.00;99.90;;;;;;5057756;28;20835;-81
2023/12/31 04:45:55;;;;;;;1.57;0.70;;;5.00;99.90;;;;;;5057641;28;20453;-82
2023/12/31 04:48:21;;;;;;;0.50;0.50;;;5.00;99.90;;;;;;5057056;28;20987;-82
2023/12/31 04:50:49;;;;;;;1.53;0.50;;;5.00;99.90;;;;;;5057535;28;20441;-81
2023/12/31 04:53:20;;;;;;;0.90;0.60;;;5.00;99.90;;;;;;5057301;28;20454;-82
2023/12/31 04:55:47;;;;;;;1.70;0.80;;;5.00;99.90;;;;;;5057459;28;20860;-82
2023/12/31 04:58:14;;;;;;;0.83;0.50;;;5.00;99.90;;;;;;5057406;28;21003;-82
2023/12/31 05:00:42;;;;;;;0.87;0.70;;;5.00;99.90;;;;;;5057516;28;20442;-81
2023/12/31 05:03:09;;;;;;;5.00;1.50;;;5.00;99.90;;;;;;5057077;28;20441;-82
2023/12/31 05:05:35;;;;;;;0.70;0.70;;;5.00;99.90;;;;;;5057504;28;20453;-82
2023/12/31 05:08:02;;;;;;;2.70;0.73;;;5.00;99.90;;;;;;5057116;28;20481;-82
2023/12/31 05:10:29;;;;;;;0.60;0.60;;;4.90;99.90;;;;;;5057415;28;20429;-80
2023/12/31 05:12:56;;;;;;;1.33;0.60;;;4.90;99.90;;;;;;5057491;28;20450;-82
2023/12/31 05:15:23;;;;;;;0.47;0.43;;;4.90;99.90;;;;;;5057284;28;20505;-81
2023/12/31 05:17:51;;;;;;;1.20;0.60;;;4.90;99.90;;;;;;5057287;28;20497;-82
2023/12/31 05:20:18;;;;;;;0.97;0.67;;;4.90;99.90;;;;;;5060677;28;20454;-81
2023/12/31 05:22:44;;;;;;;1.23;0.57;;;4.90;99.90;;;;;;5056522;28;20461;-82
2023/12/31 05:25:11;;;;;;;1.70;0.77;;;4.80;99.90;;;;;;5055807;28;20457;-82
2023/12/31 05:27:38;;;;;;;0.70;0.57;;;4.80;99.90;;;;;;5055781;28;21013;-82
2023/12/31 05:30:06;;;;;;;1.67;0.50;;;4.80;99.90;;;;;;5056505;28;20457;-82
2023/12/31 05:32:33;;;;;;;0.50;0.50;;;4.80;99.90;;;;;;5056586;28;20450;-81
2023/12/31 05:35:01;;;;;;;2.93;0.80;;;4.70;99.90;;;;;;5056474;28;20473;-82
2023/12/31 05:37:28;;;;;;;0.50;0.50;;;4.70;99.90;;;;;;5056382;28;20481;-80
2023/12/31 05:39:55;;;;;;;0.70;0.70;;;4.60;99.90;;;;;;5056873;28;20446;-81
2023/12/31 05:42:21;;;;;;;1.80;0.80;;;4.70;99.90;;;;;;5057103;28;20473;-83
2023/12/31 05:44:48;;;;;;;1.10;0.50;;;4.60;99.90;;;;;;5056737;28;20496;-82
2023/12/31 05:47:15;;;;;;;0.50;0.50;;;4.60;99.90;;;;;;5056280;28;20474;-82
2023/12/31 05:49:42;;;;;;;0.70;0.60;;;4.50;99.90;;;;;;5056306;28;20819;-82
2023/12/31 05:52:10;;;;;;;0.87;0.50;;;4.50;99.90;;;;;;5057062;28;20454;-81
2023/12/31 05:54:39;;;;;;;1.17;0.63;;;4.50;99.90;;;;;;5056952;28;20449;-81
2023/12/31 05:57:06;;;;;;;0.67;0.60;;;4.50;99.90;;;;;;5056889;28;20449;-82
2023/12/31 05:59:32;;;;;;;0.80;0.40;;;4.50;99.90;;;;;;5056610;28;20449;-81
2023/12/31 06:01:59;;;;;;;0.60;0.40;;;4.50;99.90;;;;;;5057289;28;20453;-81
2023/12/31 06:04:26;;;;;;;4.10;1.37;;;4.50;99.90;;;;;;5057049;28;20449;-81
2023/12/31 06:06:53;;;;;;;2.17;1.00;;;4.50;99.90;;;;;;5056855;28;20457;-82
2023/12/31 06:09:21;;;;;;;2.20;0.80;;;4.50;99.90;;;;;;5057010;28;20986;-81
2023/12/31 06:11:47;;;;;;;1.70;0.93;;;4.50;99.90;;;;;;5056981;28;20450;-81
2023/12/31 06:14:14;;;;;;;0.40;0.40;;;4.60;99.90;;;;;;5056977;28;20446;-81
2023/12/31 06:16:41;;;;;;;0.40;0.40;;;4.60;99.90;;;;;;5056859;28;20786;-81
2023/12/31 06:19:08;;;;;;;1.73;0.53;;;4.70;99.90;;;;;;5056520;28;20494;-82
2023/12/31 06:21:34;;;;;;;0.50;0.50;;;4.70;99.90;;;;;;5057220;28;20542;-82
2023/12/31 06:24:01;;;;;;;2.50;0.80;;;4.80;99.90;;;;;;5056614;28;20450;-82
2023/12/31 06:26:29;;;;;;;0.97;0.47;;;4.80;99.90;;;;;;5057529;28;20449;-81
2023/12/31 06:28:56;;;;;;;1.83;0.60;;;4.90;99.90;;;;;;5056741;28;20540;-82
2023/12/31 06:31:23;;;;;;;0.93;0.50;;;5.00;99.90;;;;;;5056922;28;20449;-82
2023/12/31 06:33:49;;;;;;;0.67;0.60;;;5.00;99.90;;;;;;5056369;28;20453;-82
2023/12/31 06:36:17;;;;;;;0.87;0.50;;;5.10;99.90;;;;;;5056437;28;20456;-82
2023/12/31 06:38:44;;;;;;;3.50;1.73;;;5.10;99.90;;;;;;5056377;28;20492;-83
2023/12/31 06:41:10;;;;;;;0.40;0.40;;;5.20;99.90;;;;;;5056211;28;20445;-82
2023/12/31 06:43:39;;;;;;;4.13;0.90;;;5.20;99.90;;;;;;5055682;28;20446;-83
2023/12/31 06:46:06;;;;;;;0.60;0.60;;;5.30;99.90;;;;;;5055724;28;20927;-82
2023/12/31 06:48:33;;;;;;;0.83;0.63;;;5.30;99.90;;;;;;5055425;28;20466;-83
2023/12/31 06:51:00;;;;;;;0.93;0.53;;;5.40;99.90;;;;;;5056156;28;20535;-83
2023/12/31 06:53:27;;;;;;;0.60;0.50;;;5.40;99.90;;;;;;5055558;28;20450;-82
2023/12/31 06:55:53;;;;;;;1.53;1.07;;;5.50;99.90;;;;;;5055597;28;20446;-83
2023/12/31 06:58:20;;;;;;;0.60;0.60;;;5.50;99.90;;;;;;5054741;28;20485;-83
2023/12/31 07:00:48;;;;;;;0.50;0.50;;;5.50;99.90;;;;;;5055344;28;20812;-82
2023/12/31 07:03:15;;;;;;;0.50;0.50;;;5.60;99.90;;;;;;5057180;28;20460;-82
2023/12/31 07:05:42;;;;;;;0.70;0.50;;;5.60;99.90;;;;;;5059028;28;20892;-83
2023/12/31 07:08:09;;;;;;;1.03;0.70;;;5.60;99.90;;;;;;5058187;28;20485;-83
2023/12/31 07:10:35;;;;;;;0.47;0.47;;;5.60;99.90;;;;;;5058461;28;20456;-82
2023/12/31 07:13:02;;;;;;;0.50;0.50;;;5.70;99.90;;;;;;5058392;28;20445;-83
2023/12/31 07:15:29;;;;;;;1.87;1.13;;;5.70;99.90;;;;;;5058095;28;20450;-83
2023/12/31 07:17:57;;;;;;;0.60;0.50;;;5.70;99.90;;;;;;5058382;28;20492;-83
2023/12/31 07:20:23;;;;;;;1.10;0.70;;;5.80;99.90;;;;;;5058442;28;20430;-83
2023/12/31 07:22:52;;;;;;;0.80;0.70;;;5.80;99.90;;;;;;5058646;28;20448;-83
2023/12/31 07:25:19;;;;;;;0.70;0.60;;;5.90;99.90;;;;;;5058476;28;20453;-83
2023/12/31 07:27:46;;;;;;;0.50;0.50;;;5.90;99.90;;;;;;5058552;28;20513;-83
2023/12/31 07:30:13;;;;;;;0.53;0.53;;;6.00;99.90;;;;;;5064738;28;20452;-81
2023/12/31 07:32:40;;;;;;;0.90;0.43;;;5.90;99.90;;;;;;5057297;28;20954;-83
2023/12/31 07:35:08;;;;;;;0.70;0.70;;;6.00;99.90;;;;;;5056350;28;20804;-83
2023/12/31 07:37:38;;;;;;;0.50;0.50;;;6.00;99.90;;;;;;5055990;28;20465;-82
2023/12/31 07:40:06;;;;;;;0.80;0.73;;;6.10;99.90;;;;;;5056239;28;20512;-82
2023/12/31 07:42:33;;;;;;;1.07;0.67;;;6.10;99.90;;;;;;5055978;28;20950;-83
2023/12/31 07:44:59;;;;;;;1.53;0.73;;;6.20;99.90;;;;;;5056382;28;20446;-82
2023/12/31 07:47:26;;;;;;;0.63;0.63;;;6.20;99.90;;;;;;5056346;28;20826;-83
2023/12/31 07:49:53;;;;;;;0.60;0.60;;;6.30;99.90;;;;;;5056028;28;20445;-83
2023/12/31 07:52:21;;;;;;;0.50;0.47;;;6.40;99.90;;;;;;5056095;28;20452;-83
2023/12/31 07:54:47;;;;;;;1.90;0.70;;;6.30;99.90;;;;;;5055972;28;20446;-83
2023/12/31 07:57:14;;;;;;;1.63;1.00;;;6.30;99.90;;;;;;5056376;28;20458;-83
2023/12/31 07:59:41;;;;;;;0.80;0.50;;;6.30;99.90;;;;;;5056388;28;20493;-83
2023/12/31 08:02:08;;;;;;;1.43;0.77;;;6.30;99.90;;;;;;5055904;28;20962;-83
2023/12/31 08:04:35;;;;;;;0.80;0.60;;;6.30;99.90;;;;;;5056219;28;20441;-82
2023/12/31 08:07:03;;;;;;;0.50;0.50;;;6.30;99.90;;;;;;5056515;28;20445;-83
2023/12/31 08:09:31;;;;;;;0.60;0.40;;;6.40;99.90;;;;;;5055734;28;20481;-83
2023/12/31 08:11:58;;;;;;;1.13;0.80;;;6.40;99.90;;;;;;5056511;28;20442;-83
2023/12/31 08:14:25;;;;;;;0.83;0.40;;;6.60;99.90;;;;;;5056564;28;20453;-82
2023/12/31 08:16:51;;;;;;;0.40;0.37;;;6.60;99.90;;;;;;5056463;28;20468;-83
2023/12/31 08:19:18;;;;;;;0.50;0.30;;;6.60;99.90;;;;;;5056070;28;20481;-82
2023/12/31 08:21:45;;;;;;;0.50;0.50;;;6.60;99.90;;;;;;5057509;28;20551;-82
2023/12/31 08:24:14;;;;;;;0.97;0.97;;;6.60;99.90;;;;;;5056369;28;20446;-83
2023/12/31 08:26:42;;;;;;;0.50;0.50;;;6.70;99.90;;;;;;5056465;28;20450;-82
2023/12/31 08:29:09;;;;;;;0.60;0.50;;;6.80;99.90;;;;;;5058173;28;20462;-83
2023/12/31 08:31:35;;;;;;;0.97;0.60;;;6.80;99.90;;;;;;5057635;28;20456;-82
2023/12/31 08:34:02;;;;;;;0.60;0.50;;;6.80;99.90;;;;;;5057641;28;20433;-82
2023/12/31 08:36:29;;;;;;;0.70;0.67;;;6.80;99.90;;;;;;5057236;28;20454;-82
2023/12/31 08:38:56;;;;;;;0.87;0.70;;;6.80;99.90;;;;;;5057163;28;20508;-82
2023/12/31 08:41:23;;;;;;;1.03;0.80;;;6.80;99.90;;;;;;5058192;28;20446;-82
2023/12/31 08:43:52;;;;;;;0.50;0.50;;;6.80;99.90;;;;;;5057457;28;20438;-82
2023/12/31 08:46:19;;;;;;;0.40;0.40;;;6.80;99.90;;;;;;5056937;28;20444;-82
2023/12/31 08:48:46;;;;;;;0.40;0.30;;;6.90;99.90;;;;;;5056503;28;20898;-82
2023/12/31 08:51:14;;;;;;;0.50;0.50;;;7.00;99.90;;;;;;5057499;28;20441;-82
2023/12/31 08:53:42;;;;;;;1.40;0.70;;;7.10;99.90;;;;;;5056055;28;20931;-83
2023/12/31 08:56:09;;;;;;;0.90;0.40;;;7.20;99.90;;;;;;5056109;28;20453;-82
2023/12/31 08:58:36;;;;;;;1.37;0.57;;;7.20;99.90;;;;;;5055842;28;20501;-83
2023/12/31 09:01:05;;;;;;;1.33;0.50;;;7.20;99.90;;;;;;5055976;28;20939;-82
2023/12/31 09:03:32;;;;;;;0.70;0.40;;;7.20;99.90;;;;;;5056240;28;20534;-83
2023/12/31 09:05:59;;;;;;;1.83;0.70;;;7.30;99.90;;;;;;5055780;28;20583;-82
2023/12/31 09:08:26;;;;;;;2.40;0.87;;;7.50;99.90;;;;;;5059710;28;20481;-82
2023/12/31 09:10:54;;;;;;;1.80;0.60;;;7.50;99.90;;;;;;5059499;28;20446;-83
2023/12/31 09:13:22;;;;;;;0.70;0.67;;;7.60;99.90;;;;;;5059706;28;20472;-82
2023/12/31 09:15:48;;;;;;;0.93;0.93;;;7.70;99.90;;;;;;5057906;28;20556;-83
2023/12/31 09:18:17;;;;;;;1.73;0.70;;;7.60;99.90;;;;;;5056485;28;20497;-82
2023/12/31 09:20:45;;;;;;;2.50;0.80;;;7.60;99.90;;;;;;5057028;28;20816;-83
2023/12/31 09:23:11;;;;;;;1.80;0.70;;;7.70;99.90;;;;;;5056597;28;20541;-83
2023/12/31 09:25:38;;;;;;;0.97;0.83;;;7.60;99.90;;;;;;5055737;28;20430;-82
2023/12/31 09:28:06;;;;;;;0.70;0.70;;;7.70;99.90;;;;;;5056449;28;20982;-83
2023/12/31 09:30:32;;;;;;;0.63;0.63;;;7.60;99.90;;;;;;5057015;28;20440;-82
2023/12/31 09:32:59;;;;;;;0.87;0.60;;;7.70;99.90;;;;;;5056775;28;20449;-83
2023/12/31 09:35:27;;;;;;;0.67;0.50;;;7.80;99.90;;;;;;5056470;28;20446;-83
2023/12/31 09:37:54;;;;;;;1.73;0.70;;;7.80;99.90;;;;;;5057071;28;20473;-82
2023/12/31 09:40:20;;;;;;;3.07;1.00;;;7.80;99.90;;;;;;5061904;28;20997;-81
2023/12/31 09:42:49;;;;;;;0.97;0.60;;;7.90;99.90;;;;;;5056386;28;20939;-83
2023/12/31 09:45:19;;;;;;;9.50;0.93;;;8.10;99.90;;;;;;5056068;28;20472;-82
2023/12/31 09:47:47;;;;;;;0.40;0.40;;;8.20;99.90;;;;;;5055421;28;20836;-83
2023/12/31 09:50:14;;;;;;;1.23;0.80;;;8.40;99.90;;;;;;5057523;28;20429;-82
2023/12/31 09:52:43;;;;;;;1.60;0.77;;;8.60;99.90;;;;;;5056810;28;20438;-83
2023/12/31 09:55:11;;;;;;;0.50;0.50;;;8.90;99.90;;;;;;5056667;28;20969;-83
2023/12/31 09:57:39;;;;;;;1.40;0.70;;;9.20;99.90;;;;;;5057008;28;20462;-83
2023/12/31 10:00:08;;;;;;;0.73;0.50;;;9.50;99.90;;;;;;5056028;28;20458;-80
2023/12/31 10:02:34;;;;;;;0.53;0.53;;;9.80;99.90;;;;;;5055440;28;20950;-81
2023/12/31 10:05:03;;;;;;;0.47;0.40;;;9.80;99.90;;;;;;5056873;28;20446;-81
2023/12/31 10:07:30;;;;;;;0.43;0.43;;;9.60;99.90;;;;;;5058036;28;20473;-81
2023/12/31 10:10:00;;;;;;;0.50;0.40;;;9.50;99.90;;;;;;5058924;28;20438;-82
2023/12/31 10:12:28;;;;;;;1.07;0.60;;;9.20;99.90;;;;;;5059564;28;20449;-81
2023/12/31 10:14:55;;;;;;;2.00;0.60;;;9.10;99.90;;;;;;5059375;28;20449;-81
2023/12/31 10:17:22;;;;;;;0.90;0.70;;;8.90;99.90;;;;;;5059101;28;20461;-83
2023/12/31 10:19:49;;;;;;;1.70;0.63;;;8.90;99.90;;;;;;5059828;28;21034;-81
2023/12/31 10:22:15;;;;;;;0.87;0.50;;;8.80;99.90;;;;;;5059291;28;20457;-82
2023/12/31 10:24:42;;;;;;;0.70;0.70;;;8.80;99.90;;;;;;5058994;28;20437;-81
2023/12/31 10:27:12;;;;;;;1.80;0.70;;;8.80;99.90;;;;;;5059937;28;20414;-81
2023/12/31 10:29:39;;;;;;;1.33;1.00;;;8.90;99.90;;;;;;5060075;28;20441;-82
2023/12/31 10:32:06;;;;;;;1.73;1.13;;;9.00;99.90;;;;;;5059947;28;20436;-82
2023/12/31 10:34:33;;;;;;;7.43;1.57;;;9.00;99.90;;;;;;5059895;28;20816;-81
2023/12/31 10:37:06;;;;;;;1.57;1.13;;;9.20;99.90;;;;;;5061498;28;20445;-81
2023/12/31 10:39:33;;;;;;;0.60;0.60;;;9.20;99.90;;;;;;5064840;28;20489;-81
2023/12/31 10:42:03;;;;;;;0.40;0.40;;;9.30;99.90;;;;;;5065049;28;20425;-81
2023/12/31 10:44:33;;;;;;;1.03;0.70;;;9.30;99.90;;;;;;5064743;28;20767;-81
2023/12/31 10:47:04;;;;;;;0.87;0.50;;;9.40;99.90;;;;;;5061324;28;20457;-82
2023/12/31 10:49:32;;;;;;;0.50;0.50;;;9.50;99.90;;;;;;5059680;28;20429;-82
2023/12/31 10:52:01;;;;;;;0.50;0.50;;;9.60;99.90;;;;;;5060027;28;20525;-82
2023/12/31 10:54:36;;;;;;;0.50;0.50;;;9.70;99.90;;;;;;5060064;28;20456;-82
2023/12/31 10:57:04;;;;;;;0.83;0.70;;;9.80;99.90;;;;;;5060324;28;20432;-82
2023/12/31 10:59:34;;;;;;;0.93;0.50;;;9.90;99.90;;;;;;5059681;28;20473;-81
2023/12/31 11:02:01;;;;;;;0.53;0.53;;;10.00;99.90;;;;;;5060331;28;20448;-82
2023/12/31 11:04:30;;;;;;;0.60;0.60;;;10.00;99.90;;;;;;5059782;28;20464;-81
2023/12/31 11:06:57;;;;;;;0.60;0.60;;;10.10;99.90;;;;;;5060293;28;20478;-82
2023/12/31 11:09:26;;;;;;;1.07;0.90;;;10.10;99.90;;;;;;5058303;28;20469;-81
2023/12/31 11:11:53;;;;;;;0.60;0.50;;;10.10;99.90;;;;;;5059613;28;20449;-84
2023/12/31 11:14:24;;;;;;;0.70;0.70;;;10.10;99.90;;;;;;5058971;28;20965;-81
2023/12/31 11:17:02;;;;;;;0.60;0.53;;;10.10;99.90;;;;;;5058930;28;21002;-82
2023/12/31 11:19:53;;;;;;;0.67;0.57;;;10.10;99.90;;;;;;5058689;28;20469;-81
2023/12/31 11:22:36;;;;;;;0.60;0.60;;;10.00;99.90;;;;;;5059629;28;20438;-82
2023/12/31 11:25:04;;;;;;;2.27;0.70;;;9.90;99.90;;;;;;5060238;28;20434;-81
2023/12/31 11:27:33;;;;;;;0.70;0.53;;;9.90;99.90;;;;;;5059826;28;20474;-82
2023/12/31 11:30:03;;;;;;;0.60;0.60;;;9.80;99.90;;;;;;5061014;28;20445;-82
2023/12/31 11:32:34;;;;;;;3.53;0.80;;;9.80;99.90;;;;;;5060869;28;20454;-81
2023/12/31 11:35:04;;;;;;;1.20;1.10;;;9.70;99.90;;;;;;5060739;28;20786;-82
2023/12/31 11:37:35;;;;;;;0.70;0.70;;;9.60;99.90;;;;;;5059558;28;21001;-82
2023/12/31 11:40:04;;;;;;;1.97;0.63;;;9.50;99.90;;;;;;5059888;28;20469;-81
2023/12/31 11:42:31;;;;;;;5.50;0.87;;;9.30;99.90;;;;;;5059550;28;20511;-82
2023/12/31 11:44:58;;;;;;;2.13;0.90;;;9.00;99.90;;;;;;5063511;28;20446;-80
2023/12/31 11:47:26;;;;;;;0.83;0.80;;;8.80;99.90;;;;;;5057691;28;20466;-82
2023/12/31 11:50:17;;;;;;;1.17;0.80;;;8.60;99.90;;;;;;5056206;28;20445;-83
2023/12/31 11:52:44;;;;;;;1.97;0.80;;;8.30;99.90;;;;;;5059352;28;20434;-83
2023/12/31 11:55:12;;;;;;;0.60;0.60;;;8.10;99.90;;;;;;5061368;28;20442;-82
2023/12/31 11:57:40;;;;;;;0.53;0.40;;;8.00;99.90;;;;;;5059754;28;21021;-83
2023/12/31 12:00:08;;;;;;;0.50;0.50;;;7.80;99.90;;;;;;5061779;28;20496;-83
2023/12/31 12:02:35;;;;;;;0.60;0.50;;;7.70;99.90;;;;;;5059739;28;20772;-82
2023/12/31 12:05:04;;;;;;;0.40;0.30;;;7.60;99.90;;;;;;5059909;28;20442;-82
2023/12/31 12:07:31;;;;;;;1.17;0.50;;;7.50;99.90;;;;;;5059669;28;20523;-79
2023/12/31 12:09:59;;;;;;;0.70;0.70;;;7.50;99.90;;;;;;5016906;28;20447;-79
2023/12/31 12:12:26;;;;;;;0.93;0.60;;;7.50;99.90;;;;;;5015919;28;20447;-79
2023/12/31 12:14:54;;;;;;;0.67;0.67;;;7.40;99.90;;;;;;5015917;28;20878;-80
2023/12/31 12:17:21;;;;;;;0.50;0.40;;;7.40;99.90;;;;;;5016032;28;20467;-79
2023/12/31 12:19:47;;;;;;;0.40;0.40;;;7.30;99.90;;;;;;5016626;28;20583;-79
2023/12/31 12:22:15;;;;;;;0.50;0.40;;;7.30;99.90;;;;;;5016033;28;20428;-79
2023/12/31 12:24:42;;;;;;;0.40;0.40;;;7.30;99.90;;;;;;5015891;28;20471;-79
2023/12/31 12:27:09;;;;;;;0.57;0.57;;;7.30;99.90;;;;;;5015942;28;20440;-79
2023/12/31 12:29:37;;;;;;;0.40;0.40;;;7.30;99.90;;;;;;5015928;28;20447;-79
2023/12/31 12:32:06;;;;;;;0.30;0.30;;;7.30;99.90;;;;;;5015828;28;20450;-79
2023/12/31 12:34:33;;;;;;;0.97;0.43;;;7.30;99.90;;;;;;5015988;28;20626;-79
2023/12/31 12:37:01;;;;;;;0.87;0.70;;;7.30;99.90;;;;;;5016081;28;20454;-79
2023/12/31 12:39:29;;;;;;;0.40;0.30;;;7.20;99.90;;;;;;5016301;28;20483;-79
2023/12/31 12:41:56;;;;;;;0.40;0.40;;;7.20;99.90;;;;;;5016316;28;20884;-79
2023/12/31 12:44:24;;;;;;;0.30;0.30;;;7.20;99.90;;;;;;5015617;28;20429;-80
2023/12/31 12:46:52;;;;;;;0.50;0.30;;;7.20;99.90;;;;;;5015630;28;20450;-79
2023/12/31 12:49:19;;;;;;;0.30;0.30;;;7.10;99.90;;;;;;5015626;28;20814;-79
2023/12/31 12:51:47;;;;;;;0.40;0.30;;;7.10;99.90;;;;;;5015185;28;20458;-79
2023/12/31 12:54:14;;;;;;;0.43;0.40;;;7.10;99.90;;;;;;5015596;28;20502;-79
2023/12/31 12:56:44;;;;;;;0.40;0.40;;;7.10;99.90;;;;;;5015454;28;20533;-80
2023/12/31 12:59:11;;;;;;;0.30;0.30;;;7.10;99.90;;;;;;5015923;28;20472;-80